Time;durP1;ratioP1;P1;durP2;ratioP2;P2;SDS_P1;SDS_P2;PMS_P1;PMS_P2;Temp;Humidity;BMP_temperature;BMP_pressure;BME280_temperature;BME280_humidity;BME280_pressure;Samples;Min_cycle;Max_cycle;Signal;HPM_P1;HPM_P2
2022/02/11 00:02:16;;;;;;;7.53;5.73;;;6.80;99.90;;;;;;5079568;28;20431;-66
2022/02/11 00:07:28;;;;;;;8.57;6.77;;;6.80;99.90;;;;;;5082883;28;20419;-68
2022/02/11 00:09:56;;;;;;;7.03;5.60;;;6.90;99.90;;;;;;5082767;28;20459;-66
2022/02/11 00:12:23;;;;;;;7.53;4.77;;;6.90;99.90;;;;;;5082531;28;20526;-65
2022/02/11 00:14:59;;;;;;;9.23;5.90;;;7.00;99.90;;;;;;5081922;28;20435;-66
2022/02/11 00:17:27;;;;;;;8.37;5.70;;;7.10;99.90;;;;;;5081026;28;20556;-66
2022/02/11 00:19:54;;;;;;;6.67;5.73;;;7.20;99.90;;;;;;5081163;28;20616;-66
2022/02/11 00:22:21;;;;;;;8.20;6.27;;;7.20;99.90;;;;;;5080916;28;20938;-66
2022/02/11 00:24:50;;;;;;;7.87;5.97;;;7.20;99.90;;;;;;5080856;28;20439;-67
2022/02/11 00:27:57;;;;;;;8.50;6.20;;;7.20;99.90;;;;;;5079127;28;20466;-66
2022/02/11 00:30:57;;;;;;;7.13;6.40;;;7.10;99.90;;;;;;5078947;28;20442;-65
2022/02/11 00:33:26;;;;;;;7.53;6.07;;;7.10;99.90;;;;;;5079065;28;20443;-66
2022/02/11 00:35:56;;;;;;;9.40;6.50;;;7.10;99.90;;;;;;5079173;28;20500;-66
2022/02/11 00:38:33;;;;;;;8.57;5.60;;;7.20;99.90;;;;;;5078467;28;20490;-66
2022/02/11 00:47:12;;;;;;;6.37;5.13;;;7.30;99.90;;;;;;5078427;28;20432;-65
2022/02/11 01:03:32;;;;;;;8.83;6.30;;;7.20;99.90;;;;;;5078116;28;20542;-66
2022/02/11 01:05:59;;;;;;;8.80;6.63;;;7.20;99.90;;;;;;5078501;28;20438;-66
2022/02/11 01:08:26;;;;;;;8.93;6.37;;;7.20;99.90;;;;;;5077327;28;20470;-65
2022/02/11 01:10:53;;;;;;;10.50;6.87;;;7.20;99.90;;;;;;5078152;28;20503;-65
2022/02/11 01:13:20;;;;;;;9.00;6.27;;;7.20;99.90;;;;;;5078503;28;20435;-66
2022/02/11 01:15:55;;;;;;;7.60;6.40;;;7.20;99.90;;;;;;5078600;28;20451;-66
2022/02/11 01:18:22;;;;;;;7.83;6.33;;;7.20;99.90;;;;;;5078306;28;20479;-66
2022/02/11 01:20:53;;;;;;;11.37;6.47;;;7.20;99.90;;;;;;5078156;28;20439;-66
2022/02/11 01:23:38;;;;;;;11.00;8.47;;;7.20;99.90;;;;;;5077977;28;20904;-66
2022/02/11 01:26:23;;;;;;;10.10;7.33;;;7.20;99.90;;;;;;5078879;28;20442;-65
2022/02/11 01:29:15;;;;;;;9.30;7.40;;;7.10;99.90;;;;;;5078416;28;20455;-66
2022/02/11 01:31:54;;;;;;;7.27;5.20;;;7.10;99.90;;;;;;5079500;28;20855;-66
2022/02/11 01:34:43;;;;;;;12.40;6.90;;;7.10;99.90;;;;;;5078166;28;20455;-65
2022/02/11 01:37:26;;;;;;;6.67;5.50;;;7.20;99.90;;;;;;5076356;28;20482;-66
2022/02/11 01:40:37;;;;;;;6.07;4.40;;;7.20;99.90;;;;;;5076460;28;20829;-65
2022/02/11 01:51:38;;;;;;;7.13;4.50;;;7.10;99.90;;;;;;5079599;28;20800;-66
2022/02/11 01:54:12;;;;;;;7.47;4.97;;;7.10;99.90;;;;;;5079477;28;20450;-66
2022/02/11 01:56:55;;;;;;;6.40;4.30;;;7.10;99.90;;;;;;5079637;28;20460;-66
2022/02/11 02:19:33;;;;;;;6.10;4.90;;;6.60;99.90;;;;;;5083288;28;20534;-65
2022/02/11 02:22:21;;;;;;;6.43;5.20;;;6.50;99.90;;;;;;5084076;28;20439;-66
2022/02/11 02:24:57;;;;;;;5.40;4.47;;;6.40;99.90;;;;;;5084496;28;20515;-65
2022/02/11 02:27:37;;;;;;;7.00;4.90;;;6.40;99.90;;;;;;5083621;28;20449;-64
2022/02/11 02:33:24;;;;;;;8.17;5.13;;;6.30;99.90;;;;;;5069724;28;20427;-66
2022/02/11 02:36:17;;;;;;;7.67;5.83;;;6.20;99.90;;;;;;5083812;28;20443;-66
2022/02/11 02:58:14;;;;;;;8.53;5.93;;;5.90;99.90;;;;;;5082592;28;20493;-65
2022/02/11 03:14:47;;;;;;;8.10;5.30;;;5.60;99.90;;;;;;5082341;28;20464;-65
2022/02/11 03:50:55;;;;;;;5.87;3.43;;;4.50;99.90;;;;;;5036161;28;20430;-65
2022/02/11 03:53:58;;;;;;;3.97;2.90;;;4.40;99.90;;;;;;5080392;28;20447;-65
2022/02/11 04:56:40;;;;;;;7.83;6.13;;;3.10;99.90;;;;;;5083851;28;20529;-65
2022/02/11 05:01:51;;;;;;;8.03;5.90;;;3.10;99.90;;;;;;5080625;28;20458;-65
2022/02/11 05:04:18;;;;;;;8.10;6.33;;;3.20;99.90;;;;;;5080222;28;20680;-65
2022/02/11 05:06:45;;;;;;;8.87;6.60;;;3.10;99.90;;;;;;5078743;28;21054;-65
2022/02/11 05:09:13;;;;;;;9.07;6.57;;;3.20;99.90;;;;;;5078371;28;20491;-65
2022/02/11 05:11:41;;;;;;;8.10;6.40;;;3.20;99.90;;;;;;5078709;28;20478;-65
2022/02/11 05:14:08;;;;;;;11.13;6.80;;;3.20;99.90;;;;;;5079255;28;20494;-64
2022/02/11 05:16:35;;;;;;;8.73;6.70;;;3.20;99.90;;;;;;5079106;28;20451;-66
2022/02/11 05:19:02;;;;;;;9.37;6.40;;;3.20;99.90;;;;;;5079143;28;20490;-65
2022/02/11 05:21:29;;;;;;;7.63;6.73;;;3.20;99.90;;;;;;5078983;28;20439;-66
2022/02/11 05:23:56;;;;;;;9.50;6.23;;;3.20;99.90;;;;;;5079425;28;20521;-64
2022/02/11 05:26:24;;;;;;;9.13;6.50;;;3.20;99.90;;;;;;5079257;28;20465;-63
2022/02/11 05:28:51;;;;;;;9.37;7.10;;;3.20;99.90;;;;;;5078442;28;20451;-64
2022/02/11 05:31:18;;;;;;;8.93;6.77;;;3.20;99.90;;;;;;5079572;28;20932;-68
2022/02/11 05:33:47;;;;;;;8.63;7.07;;;3.10;99.90;;;;;;5077766;28;20472;-65
2022/02/11 05:36:14;;;;;;;9.80;7.30;;;3.10;99.90;;;;;;5085208;28;20454;-66
2022/02/11 05:38:41;;;;;;;9.07;7.47;;;3.10;99.90;;;;;;5095961;28;20474;-64
2022/02/11 05:41:10;;;;;;;8.70;7.10;;;3.20;99.90;;;;;;5077906;28;20437;-66
2022/02/11 05:43:40;;;;;;;8.90;7.57;;;3.20;99.90;;;;;;5076529;28;20439;-67
2022/02/11 05:46:09;;;;;;;9.00;7.20;;;3.20;99.90;;;;;;5071524;28;20443;-66
2022/02/11 05:48:38;;;;;;;10.70;7.70;;;3.20;99.90;;;;;;5073150;28;20454;-65
2022/02/11 05:51:06;;;;;;;8.10;6.23;;;3.20;99.90;;;;;;5078585;28;20529;-65
2022/02/11 05:53:33;;;;;;;7.70;5.40;;;3.20;99.90;;;;;;5080817;28;20458;-64
2022/02/11 05:56:01;;;;;;;7.30;5.77;;;3.30;99.90;;;;;;5090369;28;20476;-66
2022/02/11 05:58:28;;;;;;;6.63;5.07;;;3.30;99.90;;;;;;5099399;28;20549;-66
2022/02/11 06:00:56;;;;;;;8.50;5.50;;;3.30;99.90;;;;;;5100267;28;20555;-66
2022/02/11 06:03:23;;;;;;;9.03;6.53;;;3.30;99.90;;;;;;5101779;28;20939;-66
2022/02/11 06:05:50;;;;;;;7.23;5.50;;;3.20;99.90;;;;;;5099718;28;20442;-63
2022/02/11 06:08:17;;;;;;;8.30;6.40;;;3.20;99.90;;;;;;5099909;28;20446;-64
2022/02/11 06:10:46;;;;;;;7.63;5.77;;;3.30;99.90;;;;;;5101460;28;20449;-66
2022/02/11 06:13:13;;;;;;;8.37;5.67;;;3.30;99.90;;;;;;5093857;28;20446;-65
2022/02/11 06:15:40;;;;;;;8.47;5.90;;;3.30;99.90;;;;;;5091899;28;20536;-64
2022/02/11 06:18:08;;;;;;;7.77;5.23;;;3.30;99.90;;;;;;5100260;28;20488;-66
2022/02/11 06:20:35;;;;;;;6.77;4.70;;;3.30;99.90;;;;;;5101961;28;20514;-65
2022/02/11 06:23:02;;;;;;;9.87;6.10;;;3.20;99.90;;;;;;5102785;28;20446;-65
2022/02/11 06:25:29;;;;;;;9.87;6.27;;;3.10;99.90;;;;;;5102794;28;20514;-64
2022/02/11 06:27:57;;;;;;;9.00;6.60;;;3.00;99.90;;;;;;5103121;28;20458;-64
2022/02/11 06:30:25;;;;;;;9.17;6.37;;;3.00;99.90;;;;;;5097992;28;20519;-65
2022/02/11 06:32:52;;;;;;;10.37;6.00;;;2.90;99.90;;;;;;5100313;28;20451;-65
2022/02/11 06:35:20;;;;;;;8.77;5.87;;;2.80;99.90;;;;;;5101126;28;20469;-65
2022/02/11 06:37:50;;;;;;;10.23;6.50;;;2.60;99.90;;;;;;5099691;28;20448;-63
2022/02/11 06:40:17;;;;;;;8.97;6.10;;;2.50;99.90;;;;;;5095688;28;20995;-65
2022/02/11 06:42:45;;;;;;;8.93;6.60;;;2.40;99.90;;;;;;5102035;28;20426;-66
2022/02/11 06:45:15;;;;;;;8.13;6.27;;;2.40;99.90;;;;;;5096512;28;20434;-65
2022/02/11 06:47:43;;;;;;;8.50;6.03;;;2.30;99.90;;;;;;5095795;28;20434;-65
2022/02/11 06:50:11;;;;;;;9.50;7.27;;;2.20;99.90;;;;;;5093053;28;20427;-66
2022/02/11 06:52:39;;;;;;;8.40;5.53;;;2.20;99.90;;;;;;5099028;28;20434;-66
2022/02/11 06:55:07;;;;;;;7.27;5.70;;;2.10;99.90;;;;;;5101682;28;20472;-65
2022/02/11 06:57:34;;;;;;;7.43;5.70;;;2.10;99.90;;;;;;5103438;28;20430;-67
2022/02/11 07:00:01;;;;;;;8.80;5.70;;;2.00;99.90;;;;;;5106414;28;20509;-66
2022/02/11 07:02:29;;;;;;;7.40;6.03;;;2.00;99.90;;;;;;5099867;28;20528;-66
2022/02/11 07:04:57;;;;;;;7.57;5.40;;;2.00;99.90;;;;;;5099147;28;20454;-64
2022/02/11 07:07:24;;;;;;;9.37;6.10;;;2.00;99.90;;;;;;5098400;28;20441;-64
2022/02/11 07:09:54;;;;;;;7.50;5.67;;;2.00;99.90;;;;;;5098122;28;20466;-65
2022/02/11 07:12:21;;;;;;;10.37;6.67;;;2.10;99.90;;;;;;5097913;28;20438;-65
2022/02/11 07:14:48;;;;;;;13.13;6.73;;;2.10;99.90;;;;;;5090868;28;20461;-66
2022/02/11 07:17:15;;;;;;;11.20;7.13;;;2.20;99.90;;;;;;5092719;28;20809;-65
2022/02/11 07:19:42;;;;;;;11.63;7.13;;;2.40;99.90;;;;;;5099339;28;20482;-65
2022/02/11 07:22:09;;;;;;;10.13;6.83;;;2.50;99.90;;;;;;5098679;28;20462;-66
2022/02/11 07:24:36;;;;;;;10.83;7.43;;;2.50;99.90;;;;;;5096025;28;20454;-66
2022/02/11 07:27:09;;;;;;;10.07;7.40;;;2.50;99.90;;;;;;5088790;28;20476;-66
2022/02/11 07:29:36;;;;;;;9.83;6.70;;;2.60;99.90;;;;;;5089923;28;20459;-67
2022/02/11 07:32:03;;;;;;;9.03;7.47;;;2.70;99.90;;;;;;5091694;28;20471;-67
2022/02/11 07:34:30;;;;;;;15.50;7.13;;;2.60;99.90;;;;;;5098080;28;21123;-66
2022/02/11 07:36:59;;;;;;;9.40;6.83;;;2.70;99.90;;;;;;5099358;28;20871;-66
2022/02/11 07:39:28;;;;;;;9.10;6.90;;;2.70;99.90;;;;;;5099134;28;20528;-66
2022/02/11 07:41:55;;;;;;;11.40;7.60;;;2.70;99.90;;;;;;5094880;28;20448;-65
2022/02/11 07:44:23;;;;;;;11.07;7.00;;;2.70;99.90;;;;;;5082941;28;20550;-66
2022/02/11 07:46:53;;;;;;;12.23;7.00;;;2.70;99.90;;;;;;5080989;28;20445;-66
2022/02/11 07:49:20;;;;;;;10.23;7.10;;;2.70;99.90;;;;;;5076077;28;20493;-66
2022/02/11 07:51:46;;;;;;;6.83;6.07;;;2.70;99.90;;;;;;5078676;28;20451;-64
2022/02/11 07:54:13;;;;;;;10.30;7.53;;;2.70;99.90;;;;;;5078103;28;20450;-61
2022/02/11 07:56:40;;;;;;;10.60;6.77;;;2.80;99.90;;;;;;5077539;28;20482;-62
2022/02/11 07:59:07;;;;;;;10.37;6.23;;;2.80;99.90;;;;;;5085389;28;20549;-65
2022/02/11 08:01:35;;;;;;;11.03;7.87;;;2.90;99.90;;;;;;5083608;28;20438;-66
2022/02/11 08:04:02;;;;;;;10.87;7.90;;;2.90;99.90;;;;;;5091246;28;20447;-67
2022/02/11 08:06:29;;;;;;;9.30;6.50;;;3.00;99.90;;;;;;5088132;28;20546;-67
2022/02/11 08:08:55;;;;;;;9.00;6.40;;;3.10;99.90;;;;;;5087071;28;20511;-67
2022/02/11 08:11:22;;;;;;;8.93;6.30;;;3.20;99.90;;;;;;5101962;28;20529;-67
2022/02/11 08:13:49;;;;;;;7.97;6.33;;;3.40;99.90;;;;;;5089164;28;20473;-64
2022/02/11 08:16:16;;;;;;;7.60;5.03;;;3.50;99.90;;;;;;5096367;28;20446;-66
2022/02/11 08:18:44;;;;;;;8.40;5.10;;;3.60;99.90;;;;;;5101330;28;20474;-66
2022/02/11 08:21:11;;;;;;;8.60;5.67;;;3.60;99.90;;;;;;5099836;28;20446;-66
2022/02/11 08:23:38;;;;;;;8.33;5.43;;;3.70;99.90;;;;;;5100192;28;20442;-65
2022/02/11 08:26:05;;;;;;;10.10;6.33;;;3.70;99.90;;;;;;5099537;28;20442;-67
2022/02/11 08:28:32;;;;;;;7.30;4.23;;;3.80;99.90;;;;;;5097338;28;20991;-66
2022/02/11 08:30:59;;;;;;;9.17;5.00;;;3.90;99.90;;;;;;5096924;28;20932;-67
2022/02/11 08:33:26;;;;;;;12.40;4.73;;;3.90;99.90;;;;;;5096603;28;20457;-67
2022/02/11 08:35:55;;;;;;;9.03;5.53;;;4.00;99.90;;;;;;5097091;28;20474;-66
2022/02/11 08:38:24;;;;;;;8.17;4.73;;;4.00;99.90;;;;;;5097474;28;20552;-67
2022/02/11 08:40:52;;;;;;;7.20;4.33;;;3.90;99.90;;;;;;5099519;28;20470;-66
2022/02/11 08:43:21;;;;;;;7.47;4.60;;;3.90;99.90;;;;;;5099996;28;20442;-66
2022/02/11 08:45:49;;;;;;;6.50;3.87;;;3.80;99.90;;;;;;5098497;28;21043;-66
2022/02/11 08:48:16;;;;;;;5.53;4.20;;;3.70;99.90;;;;;;5095704;28;21006;-65
2022/02/11 08:50:44;;;;;;;6.10;4.07;;;3.80;99.90;;;;;;5095958;28;20470;-65
2022/02/11 08:53:12;;;;;;;5.43;4.43;;;3.90;99.90;;;;;;5095119;28;20557;-66
2022/02/11 08:55:40;;;;;;;7.53;4.50;;;4.10;99.90;;;;;;5095658;28;20441;-66
2022/02/11 08:58:07;;;;;;;7.37;4.10;;;4.30;99.90;;;;;;5095153;28;20502;-65
2022/02/11 09:00:35;;;;;;;7.53;4.50;;;4.40;99.90;;;;;;5096150;28;20568;-65
2022/02/11 09:03:02;;;;;;;8.30;4.30;;;4.60;99.90;;;;;;5095607;28;20450;-66
2022/02/11 09:05:29;;;;;;;6.83;3.77;;;4.80;99.90;;;;;;5096450;28;20443;-66
2022/02/11 09:07:57;;;;;;;5.73;3.63;;;4.90;99.90;;;;;;5095512;28;20453;-65
2022/02/11 09:10:27;;;;;;;5.60;3.10;;;4.90;99.90;;;;;;5095456;28;20525;-66
2022/02/11 09:12:54;;;;;;;5.87;3.97;;;4.90;99.90;;;;;;5093321;28;20445;-66
2022/02/11 09:15:21;;;;;;;5.17;3.50;;;4.90;99.90;;;;;;5093766;28;20448;-65
2022/02/11 09:17:49;;;;;;;7.67;3.93;;;4.90;99.90;;;;;;5093442;28;20440;-65
2022/02/11 09:20:16;;;;;;;6.07;3.30;;;5.00;99.90;;;;;;5092977;28;20483;-65
2022/02/11 09:22:45;;;;;;;7.20;3.53;;;5.20;99.90;;;;;;5093745;28;20442;-65
2022/02/11 09:25:13;;;;;;;4.67;3.37;;;5.20;99.90;;;;;;5094860;28;20438;-66
2022/02/11 09:27:43;;;;;;;5.90;3.13;;;5.20;99.90;;;;;;5093727;28;20446;-66
2022/02/11 09:30:12;;;;;;;5.10;3.13;;;5.20;99.90;;;;;;5095009;28;20442;-66
2022/02/11 09:32:39;;;;;;;4.70;2.90;;;5.40;99.90;;;;;;5096867;28;20438;-66
2022/02/11 09:35:07;;;;;;;12.30;3.63;;;5.50;99.90;;;;;;5096412;28;20442;-66
2022/02/11 09:37:34;;;;;;;6.93;3.50;;;5.70;99.90;;;;;;5095875;28;20545;-67
2022/02/11 09:40:01;;;;;;;9.27;4.03;;;5.90;99.90;;;;;;5094407;28;20507;-66
2022/02/11 09:42:30;;;;;;;5.17;3.10;;;6.00;99.90;;;;;;5094199;28;20511;-67
2022/02/11 09:44:59;;;;;;;10.97;3.93;;;6.00;99.90;;;;;;5094971;28;20442;-66
2022/02/11 09:47:26;;;;;;;7.30;3.47;;;6.10;99.90;;;;;;5094376;28;20442;-66
2022/02/11 09:49:53;;;;;;;7.07;3.97;;;6.20;99.90;;;;;;5096191;28;20857;-67
2022/02/11 09:52:21;;;;;;;6.83;3.77;;;6.50;99.90;;;;;;5097745;28;20481;-67
2022/02/11 09:54:48;;;;;;;7.57;4.27;;;6.70;99.90;;;;;;5097003;28;20454;-66
2022/02/11 09:57:19;;;;;;;8.67;3.40;;;6.80;99.90;;;;;;5095446;28;20505;-67
2022/02/11 09:59:46;;;;;;;5.50;3.10;;;6.80;99.90;;;;;;5095557;28;20473;-66
2022/02/11 10:02:17;;;;;;;4.50;3.03;;;6.90;99.90;;;;;;5094970;28;20442;-67
2022/02/11 10:04:56;;;;;;;7.03;2.77;;;6.90;99.90;;;;;;5094851;28;20434;-66
2022/02/11 10:07:23;;;;;;;5.77;2.83;;;6.90;99.90;;;;;;5093901;28;20445;-66
2022/02/11 10:09:50;;;;;;;11.83;3.30;;;7.00;99.90;;;;;;5093625;28;20541;-67
2022/02/11 10:12:17;;;;;;;5.43;2.90;;;6.90;99.90;;;;;;5095064;28;20929;-65
2022/02/11 10:14:43;;;;;;;5.63;2.50;;;6.80;99.90;;;;;;5094628;28;20484;-66
2022/02/11 10:17:17;;;;;;;4.50;1.90;;;6.90;99.90;;;;;;5093233;28;20542;-66
2022/02/11 10:19:51;;;;;;;3.70;2.50;;;7.10;99.90;;;;;;5093562;28;20485;-67
2022/02/11 10:22:20;;;;;;;5.77;2.53;;;7.40;99.90;;;;;;5093828;28;21078;-69
2022/02/11 10:24:49;;;;;;;5.27;3.00;;;7.40;99.90;;;;;;5093253;28;20452;-66
2022/02/11 10:27:18;;;;;;;8.47;2.40;;;7.20;99.90;;;;;;5094927;28;20438;-66
2022/02/11 10:29:46;;;;;;;4.80;2.47;;;6.90;99.90;;;;;;5095901;28;20490;-66
2022/02/11 10:32:15;;;;;;;3.83;2.07;;;6.70;99.90;;;;;;5096192;28;20954;-67
2022/02/11 10:34:51;;;;;;;4.30;2.53;;;6.80;99.90;;;;;;5098988;28;20449;-67
2022/02/11 10:37:18;;;;;;;4.53;2.60;;;6.90;99.90;;;;;;5098349;28;20847;-66
2022/02/11 10:39:56;;;;;;;5.17;2.50;;;6.80;99.90;;;;;;5099158;28;20550;-65
2022/02/11 10:42:42;;;;;;;6.03;2.57;;;6.40;99.90;;;;;;5098927;28;20444;-66
2022/02/11 10:45:30;;;;;;;5.40;2.50;;;6.20;99.90;;;;;;5098246;28;20446;-66
2022/02/11 10:48:15;;;;;;;4.90;2.83;;;6.10;99.90;;;;;;5096907;28;20452;-66
2022/02/11 10:50:47;;;;;;;7.43;3.10;;;6.60;99.90;;;;;;5095535;28;20972;-65
2022/02/11 10:53:22;;;;;;;5.97;3.20;;;6.90;99.90;;;;;;5085506;28;20845;-65
2022/02/11 10:55:50;;;;;;;6.20;3.27;;;6.80;99.90;;;;;;5086435;28;20444;-65
2022/02/11 10:58:17;;;;;;;4.07;2.60;;;6.70;99.90;;;;;;5086491;28;20462;-65
2022/02/11 11:00:45;;;;;;;5.60;3.00;;;6.40;99.90;;;;;;5091496;28;20561;-65
2022/02/11 11:03:13;;;;;;;4.77;2.83;;;6.20;99.90;;;;;;5097813;28;20442;-66
2022/02/11 11:05:41;;;;;;;7.03;3.13;;;6.30;99.90;;;;;;5097103;28;20442;-65
2022/02/11 11:08:10;;;;;;;5.10;2.70;;;6.50;99.90;;;;;;5096950;28;20462;-65
2022/02/11 11:10:41;;;;;;;9.50;3.13;;;6.90;99.90;;;;;;5085797;28;20442;-66
2022/02/11 11:13:11;;;;;;;5.20;2.80;;;7.50;99.90;;;;;;5086174;28;20875;-66
2022/02/11 11:15:38;;;;;;;5.37;2.67;;;7.60;99.90;;;;;;5086816;28;20531;-65
2022/02/11 11:18:07;;;;;;;4.40;2.53;;;7.20;99.90;;;;;;5094986;28;20454;-65
2022/02/11 11:20:35;;;;;;;5.50;2.67;;;6.80;99.90;;;;;;5083631;28;20487;-65
2022/02/11 11:23:08;;;;;;;5.47;3.13;;;6.70;99.90;;;;;;5094501;28;20457;-65
2022/02/11 11:25:52;;;;;;;4.53;3.37;;;6.70;99.90;;;;;;5095022;28;20442;-66
2022/02/11 11:28:43;;;;;;;4.87;3.00;;;6.80;99.90;;;;;;5095432;28;20466;-64
2022/02/11 11:31:12;;;;;;;5.67;3.43;;;6.80;99.90;;;;;;5094571;28;20430;-66
2022/02/11 11:33:39;;;;;;;10.27;2.87;;;6.80;99.90;;;;;;5095559;28;20487;-65
2022/02/11 11:36:12;;;;;;;4.20;2.40;;;6.50;99.90;;;;;;5096809;28;20884;-65
2022/02/11 11:38:44;;;;;;;5.33;2.40;;;6.50;99.90;;;;;;5095263;28;20497;-66
2022/02/11 11:41:15;;;;;;;6.70;2.97;;;6.50;99.90;;;;;;5094821;28;20532;-64
2022/02/11 11:43:44;;;;;;;3.70;2.40;;;6.40;99.90;;;;;;5094560;28;20465;-65
2022/02/11 11:46:32;;;;;;;2.83;2.10;;;6.50;99.90;;;;;;5095745;28;20452;-65
2022/02/11 11:49:00;;;;;;;4.30;2.50;;;6.60;99.90;;;;;;5095511;28;20458;-66
2022/02/11 11:51:31;;;;;;;5.70;2.60;;;7.00;99.90;;;;;;5095896;28;20438;-65
2022/02/11 11:54:23;;;;;;;5.13;2.40;;;7.10;99.90;;;;;;5096504;28;20887;-66
2022/02/11 11:56:51;;;;;;;6.80;2.60;;;7.10;99.90;;;;;;5096411;28;20434;-65
2022/02/11 11:59:19;;;;;;;5.60;2.93;;;6.90;99.90;;;;;;5094813;28;20470;-65
2022/02/11 12:01:53;;;;;;;3.33;2.20;;;6.90;99.90;;;;;;5095393;28;20442;-66
2022/02/11 12:04:23;;;;;;;5.27;2.50;;;6.80;99.90;;;;;;5097766;28;20507;-66
2022/02/11 12:06:53;;;;;;;6.60;2.60;;;6.90;99.90;;;;;;5093047;28;20446;-66
2022/02/11 12:09:22;;;;;;;4.70;2.57;;;7.00;99.90;;;;;;5095255;28;20879;-65
2022/02/11 12:11:53;;;;;;;5.50;2.67;;;7.10;99.90;;;;;;5094881;28;20508;-65
2022/02/11 12:14:20;;;;;;;5.10;2.70;;;7.00;99.90;;;;;;5094249;28;20439;-63
2022/02/11 12:16:47;;;;;;;6.20;2.87;;;6.90;99.90;;;;;;5093983;28;21069;-65
2022/02/11 12:19:15;;;;;;;4.10;2.50;;;7.00;99.90;;;;;;5094117;28;20466;-66
2022/02/11 12:21:41;;;;;;;6.73;2.63;;;7.10;99.90;;;;;;5094269;28;21257;-65
2022/02/11 12:29:40;;;;;;;6.93;2.60;;;7.10;99.90;;;;;;5096639;28;20477;-65
2022/02/11 12:32:07;;;;;;;5.40;2.50;;;7.10;99.90;;;;;;5096756;28;20450;-65
2022/02/11 12:34:36;;;;;;;5.77;2.53;;;7.00;99.90;;;;;;5096454;28;20503;-65
2022/02/11 12:37:09;;;;;;;5.17;2.40;;;6.90;99.90;;;;;;5098212;28;20446;-66
2022/02/11 12:39:37;;;;;;;5.17;2.23;;;6.90;99.90;;;;;;5089793;28;20466;-66
2022/02/11 12:42:05;;;;;;;7.50;4.20;;;6.90;99.90;;;;;;5098378;28;20962;-66
2022/02/11 12:44:33;;;;;;;7.50;2.63;;;6.90;99.90;;;;;;5096507;28;20449;-65
2022/02/11 12:47:02;;;;;;;4.50;2.67;;;6.90;99.90;;;;;;5097558;28;20866;-64
2022/02/11 12:49:29;;;;;;;3.90;2.00;;;6.90;99.90;;;;;;5097356;28;20555;-66
2022/02/11 12:51:58;;;;;;;3.87;2.30;;;6.80;99.90;;;;;;5097772;28;20446;-66
2022/02/11 12:54:25;;;;;;;5.57;3.07;;;6.90;99.90;;;;;;5097830;28;20474;-66
2022/02/11 12:57:03;;;;;;;9.00;2.87;;;7.10;99.90;;;;;;5097294;28;20521;-66
2022/02/11 12:59:31;;;;;;;5.33;2.40;;;7.30;99.90;;;;;;5099555;28;20480;-66
2022/02/11 13:01:58;;;;;;;5.40;2.47;;;7.40;99.90;;;;;;5091321;28;20568;-64
2022/02/11 13:04:24;;;;;;;6.10;2.77;;;7.40;99.90;;;;;;5086147;28;20466;-65
2022/02/11 13:06:51;;;;;;;5.03;2.83;;;7.20;99.90;;;;;;5095896;28;20438;-64
2022/02/11 13:09:21;;;;;;;5.17;3.03;;;7.40;99.90;;;;;;5093201;28;20472;-64
2022/02/11 13:11:54;;;;;;;4.37;2.67;;;7.60;99.90;;;;;;5096849;28;20460;-64
2022/02/11 13:14:23;;;;;;;4.43;2.57;;;7.70;99.90;;;;;;5096894;28;20426;-64
2022/02/11 13:16:50;;;;;;;4.47;2.60;;;7.60;99.90;;;;;;5094635;28;20525;-64
2022/02/11 13:19:20;;;;;;;4.90;2.67;;;7.40;99.90;;;;;;5092543;28;20901;-64
2022/02/11 13:21:47;;;;;;;4.53;2.80;;;7.20;99.90;;;;;;5092509;28;20490;-64
2022/02/11 13:24:14;;;;;;;5.67;2.37;;;7.30;99.90;;;;;;5092456;28;20446;-64
2022/02/11 13:26:41;;;;;;;5.60;2.13;;;7.30;99.90;;;;;;5092555;28;20447;-64
2022/02/11 13:29:15;;;;;;;3.30;2.50;;;7.50;99.90;;;;;;5094084;28;20497;-64
2022/02/11 13:31:50;;;;;;;4.67;2.37;;;7.50;99.90;;;;;;5092716;28;20529;-62
2022/02/11 13:34:17;;;;;;;9.13;2.87;;;7.40;99.90;;;;;;5093310;28;20501;-64
2022/02/11 13:36:48;;;;;;;7.33;3.20;;;7.50;99.90;;;;;;5091074;28;20958;-64
2022/02/11 13:39:28;;;;;;;5.13;2.70;;;7.50;99.90;;;;;;5091474;28;20550;-63
2022/02/11 13:41:55;;;;;;;5.70;2.70;;;7.40;99.90;;;;;;5091088;28;20974;-66
2022/02/11 13:44:22;;;;;;;5.50;2.40;;;7.30;99.90;;;;;;5090259;28;20465;-66
2022/02/11 13:46:55;;;;;;;5.00;2.60;;;7.30;99.90;;;;;;5091986;28;20442;-64
2022/02/11 13:49:22;;;;;;;3.57;2.27;;;7.50;99.90;;;;;;5093785;28;20457;-64
2022/02/11 13:54:57;;;;;;;3.40;2.40;;;7.30;99.90;;;;;;5096073;28;20434;-65
2022/02/11 13:57:25;;;;;;;3.10;1.83;;;7.20;99.90;;;;;;5096897;28;20446;-64
2022/02/11 13:59:51;;;;;;;3.67;2.10;;;7.20;99.90;;;;;;5095470;28;20537;-64
2022/02/11 14:02:22;;;;;;;4.73;2.00;;;7.10;99.90;;;;;;5093371;28;20454;-61
2022/02/11 14:05:01;;;;;;;7.37;4.30;;;7.10;99.90;;;;;;5090803;28;20449;-62
2022/02/11 14:07:28;;;;;;;3.63;2.33;;;7.10;99.90;;;;;;5095057;28;20449;-64
2022/02/11 14:09:55;;;;;;;3.03;1.90;;;7.10;99.90;;;;;;5094295;28;20458;-64
2022/02/11 14:12:29;;;;;;;3.67;2.13;;;7.20;99.90;;;;;;5097607;28;20434;-64
2022/02/11 14:14:58;;;;;;;4.03;2.20;;;7.20;99.90;;;;;;5099904;28;20445;-65
2022/02/11 14:17:29;;;;;;;3.90;2.50;;;7.20;99.90;;;;;;5091408;28;20866;-64
2022/02/11 14:19:56;;;;;;;4.40;2.10;;;7.20;99.90;;;;;;5086013;28;20481;-63
2022/02/11 14:22:23;;;;;;;3.90;2.23;;;7.30;99.90;;;;;;5090068;28;20935;-64
2022/02/11 14:24:50;;;;;;;3.50;1.97;;;7.30;99.90;;;;;;5092319;28;20708;-63
2022/02/11 14:27:17;;;;;;;3.93;2.50;;;7.40;99.90;;;;;;5087846;28;20572;-64
2022/02/11 14:29:45;;;;;;;4.07;3.00;;;7.40;99.90;;;;;;5083042;28;20470;-62
2022/02/11 14:32:12;;;;;;;6.03;3.63;;;7.30;99.90;;;;;;5094293;28;20438;-63
2022/02/11 14:34:41;;;;;;;4.57;2.30;;;7.20;99.90;;;;;;5092928;28;20449;-64
2022/02/11 14:37:09;;;;;;;6.00;2.30;;;7.30;99.90;;;;;;5088687;28;20515;-63
2022/02/11 14:39:36;;;;;;;3.27;2.20;;;7.50;99.90;;;;;;5082120;28;20476;-64
2022/02/11 14:42:05;;;;;;;5.53;1.90;;;7.60;99.90;;;;;;5092535;28;20486;-64
2022/02/11 14:44:36;;;;;;;3.27;2.17;;;7.80;99.90;;;;;;5091732;28;20450;-63
2022/02/11 14:47:05;;;;;;;4.37;2.00;;;7.80;99.90;;;;;;5074457;28;20449;-64
2022/02/11 14:49:32;;;;;;;8.47;2.20;;;7.70;99.90;;;;;;5090417;28;21348;-64
2022/02/11 14:52:03;;;;;;;3.97;2.33;;;7.70;99.90;;;;;;5089780;28;20513;-64
2022/02/11 14:54:32;;;;;;;6.60;2.63;;;7.80;99.90;;;;;;5091012;28;20449;-64
2022/02/11 14:56:59;;;;;;;5.63;2.67;;;7.50;99.90;;;;;;5088909;28;20451;-63
2022/02/11 14:59:26;;;;;;;3.67;1.90;;;7.30;99.90;;;;;;5091125;28;20462;-63
2022/02/11 15:01:55;;;;;;;3.20;2.07;;;7.20;99.90;;;;;;5092425;28;20490;-62
2022/02/11 15:04:23;;;;;;;4.13;1.80;;;7.10;99.90;;;;;;5086597;28;20465;-65
2022/02/11 15:06:51;;;;;;;4.03;1.97;;;7.00;99.90;;;;;;5091416;28;20521;-65
2022/02/11 15:09:21;;;;;;;4.63;1.50;;;6.90;99.90;;;;;;5092435;28;20476;-64
2022/02/11 15:11:48;;;;;;;4.20;2.30;;;6.90;99.90;;;;;;5087848;28;20452;-64
2022/02/11 15:14:15;;;;;;;5.90;2.00;;;6.80;99.90;;;;;;5089129;28;20442;-64
2022/02/11 15:16:42;;;;;;;4.30;2.30;;;6.70;99.90;;;;;;5087584;28;20481;-65
2022/02/11 15:19:09;;;;;;;5.43;2.00;;;6.70;99.90;;;;;;5077994;28;20966;-64
2022/02/11 15:21:36;;;;;;;5.07;2.03;;;6.70;99.90;;;;;;5091279;28;20569;-65
2022/02/11 15:24:04;;;;;;;4.63;2.17;;;6.60;99.90;;;;;;5081137;28;20446;-63
2022/02/11 15:26:32;;;;;;;5.17;2.23;;;6.50;99.90;;;;;;5088747;28;20442;-64
2022/02/11 15:28:58;;;;;;;4.50;1.83;;;6.50;99.90;;;;;;5088711;28;20547;-64
2022/02/11 15:31:26;;;;;;;3.50;2.17;;;6.50;99.90;;;;;;5094512;28;20449;-65
2022/02/11 15:33:53;;;;;;;7.93;2.90;;;6.50;99.90;;;;;;5094154;28;20446;-64
2022/02/11 15:36:20;;;;;;;5.27;1.97;;;6.40;99.90;;;;;;5094739;28;20587;-61
2022/02/11 15:38:47;;;;;;;4.50;2.30;;;6.40;99.90;;;;;;5093808;28;20474;-64
2022/02/11 15:41:14;;;;;;;6.23;2.30;;;6.30;99.90;;;;;;5094861;28;20474;-65
2022/02/11 15:43:43;;;;;;;8.33;2.73;;;6.30;99.90;;;;;;5095190;28;20533;-65
2022/02/11 15:46:11;;;;;;;3.20;2.37;;;6.30;99.90;;;;;;5094675;28;20542;-64
2022/02/11 15:48:40;;;;;;;5.67;2.23;;;6.30;99.90;;;;;;5093975;28;20474;-63
2022/02/11 15:51:08;;;;;;;5.63;2.23;;;6.20;99.90;;;;;;5094732;28;20450;-65
2022/02/11 15:53:35;;;;;;;7.73;3.20;;;6.20;99.90;;;;;;5094810;28;20468;-66
2022/02/11 15:56:02;;;;;;;7.10;3.33;;;6.20;99.90;;;;;;5094860;28;20491;-65
2022/02/11 15:58:29;;;;;;;6.33;2.10;;;6.10;99.90;;;;;;5088570;28;20582;-64
2022/02/11 16:00:57;;;;;;;4.40;1.90;;;6.10;99.90;;;;;;5086289;28;20482;-65
2022/02/11 16:03:25;;;;;;;3.33;2.20;;;6.10;99.90;;;;;;5079317;28;21071;-66
2022/02/11 16:05:52;;;;;;;6.00;2.73;;;6.00;99.90;;;;;;5071992;28;20506;-65
2022/02/11 16:08:19;;;;;;;4.53;2.30;;;6.00;99.90;;;;;;5083432;28;20549;-66
2022/02/11 16:10:46;;;;;;;7.20;2.63;;;5.90;99.90;;;;;;5082159;28;20526;-66
2022/02/11 16:13:13;;;;;;;4.67;2.60;;;6.00;99.90;;;;;;5072549;28;20454;-66
2022/02/11 16:15:41;;;;;;;5.93;3.03;;;6.00;99.90;;;;;;5070970;28;20531;-65
2022/02/11 16:18:14;;;;;;;4.13;2.57;;;6.00;99.90;;;;;;5082883;28;20827;-64
2022/02/11 16:20:44;;;;;;;4.87;2.87;;;6.00;99.90;;;;;;5077808;28;20457;-66
2022/02/11 16:23:13;;;;;;;6.83;3.00;;;6.00;99.90;;;;;;5081712;28;20455;-65